sensor_id;sensor_type;location;lat;lon;timestamp;P1;durP1;ratioP1;P2;durP2;ratioP2
34064;SDS011;20339;49.754;20.158;2023-07-29T00:01:13;3.90;;;2.90;;
34064;SDS011;20339;49.754;20.158;2023-07-29T00:03:43;4.30;;;2.90;;
34064;SDS011;20339;49.754;20.158;2023-07-29T00:06:14;4.50;;;2.90;;
34064;SDS011;20339;49.754;20.158;2023-07-29T00:08:45;4.40;;;3.50;;
34064;SDS011;20339;49.754;20.158;2023-07-29T00:11:17;3.20;;;2.90;;
34064;SDS011;20339;49.754;20.158;2023-07-29T00:13:48;4.80;;;3.10;;
34064;SDS011;20339;49.754;20.158;2023-07-29T00:16:20;5.80;;;3.40;;
34064;SDS011;20339;49.754;20.158;2023-07-29T00:18:51;3.90;;;3.10;;
34064;SDS011;20339;49.754;20.158;2023-07-29T00:21:22;3.60;;;3.10;;
34064;SDS011;20339;49.754;20.158;2023-07-29T00:23:55;3.90;;;3.10;;
34064;SDS011;20339;49.754;20.158;2023-07-29T00:26:26;4.70;;;3.30;;
34064;SDS011;20339;49.754;20.158;2023-07-29T00:28:58;4.30;;;2.90;;
34064;SDS011;20339;49.754;20.158;2023-07-29T00:31:29;3.40;;;2.80;;
34064;SDS011;20339;49.754;20.158;2023-07-29T00:34:00;3.80;;;2.90;;
34064;SDS011;20339;49.754;20.158;2023-07-29T00:36:31;3.70;;;2.80;;
34064;SDS011;20339;49.754;20.158;2023-07-29T00:39:02;4.50;;;2.80;;
34064;SDS011;20339;49.754;20.158;2023-07-29T00:41:33;5.80;;;3.30;;
34064;SDS011;20339;49.754;20.158;2023-07-29T00:44:06;3.90;;;3.20;;
34064;SDS011;20339;49.754;20.158;2023-07-29T00:46:37;4.70;;;3.20;;
34064;SDS011;20339;49.754;20.158;2023-07-29T00:49:09;3.90;;;2.60;;
34064;SDS011;20339;49.754;20.158;2023-07-29T00:51:40;4.50;;;2.90;;
34064;SDS011;20339;49.754;20.158;2023-07-29T00:54:12;5.60;;;3.30;;
34064;SDS011;20339;49.754;20.158;2023-07-29T00:56:43;3.80;;;3.40;;
34064;SDS011;20339;49.754;20.158;2023-07-29T00:59:15;5.90;;;3.30;;
34064;SDS011;20339;49.754;20.158;2023-07-29T01:01:48;4.10;;;3.10;;
34064;SDS011;20339;49.754;20.158;2023-07-29T01:04:19;6.90;;;3.60;;
34064;SDS011;20339;49.754;20.158;2023-07-29T01:06:50;4.40;;;3.10;;
34064;SDS011;20339;49.754;20.158;2023-07-29T01:09:30;4.50;;;3.50;;
34064;SDS011;20339;49.754;20.158;2023-07-29T01:12:08;3.70;;;3.10;;
34064;SDS011;20339;49.754;20.158;2023-07-29T01:14:51;4.30;;;3.20;;
34064;SDS011;20339;49.754;20.158;2023-07-29T01:17:33;4.30;;;3.40;;
34064;SDS011;20339;49.754;20.158;2023-07-29T01:20:13;4.60;;;3.20;;
34064;SDS011;20339;49.754;20.158;2023-07-29T01:22:45;6.20;;;3.80;;
34064;SDS011;20339;49.754;20.158;2023-07-29T01:25:16;3.70;;;2.80;;
34064;SDS011;20339;49.754;20.158;2023-07-29T01:27:48;5.00;;;3.30;;
34064;SDS011;20339;49.754;20.158;2023-07-29T01:30:25;4.90;;;3.40;;
34064;SDS011;20339;49.754;20.158;2023-07-29T01:33:03;4.70;;;3.30;;
34064;SDS011;20339;49.754;20.158;2023-07-29T01:35:42;6.20;;;3.50;;
34064;SDS011;20339;49.754;20.158;2023-07-29T01:38:21;3.80;;;3.30;;
34064;SDS011;20339;49.754;20.158;2023-07-29T01:41:01;5.30;;;3.20;;
34064;SDS011;20339;49.754;20.158;2023-07-29T01:43:35;5.20;;;3.40;;
34064;SDS011;20339;49.754;20.158;2023-07-29T01:46:11;4.40;;;3.10;;
34064;SDS011;20339;49.754;20.158;2023-07-29T01:48:45;3.90;;;3.20;;
34064;SDS011;20339;49.754;20.158;2023-07-29T01:51:16;3.90;;;3.00;;
34064;SDS011;20339;49.754;20.158;2023-07-29T01:53:48;3.80;;;3.30;;
34064;SDS011;20339;49.754;20.158;2023-07-29T01:56:19;4.40;;;3.30;;
34064;SDS011;20339;49.754;20.158;2023-07-29T01:58:50;5.50;;;3.50;;
34064;SDS011;20339;49.754;20.158;2023-07-29T02:01:21;3.80;;;3.10;;
34064;SDS011;20339;49.754;20.158;2023-07-29T02:03:52;5.80;;;3.50;;
34064;SDS011;20339;49.754;20.158;2023-07-29T02:06:23;4.20;;;3.40;;
34064;SDS011;20339;49.754;20.158;2023-07-29T02:08:58;3.50;;;3.20;;
34064;SDS011;20339;49.754;20.158;2023-07-29T02:11:29;5.40;;;3.30;;
34064;SDS011;20339;49.754;20.158;2023-07-29T02:14:02;5.30;;;3.30;;
34064;SDS011;20339;49.754;20.158;2023-07-29T02:16:33;5.20;;;3.40;;
34064;SDS011;20339;49.754;20.158;2023-07-29T02:19:05;4.40;;;3.50;;
34064;SDS011;20339;49.754;20.158;2023-07-29T02:21:36;4.20;;;3.00;;
34064;SDS011;20339;49.754;20.158;2023-07-29T02:24:09;4.60;;;2.90;;
34064;SDS011;20339;49.754;20.158;2023-07-29T02:26:41;4.10;;;3.40;;
34064;SDS011;20339;49.754;20.158;2023-07-29T02:29:12;5.00;;;3.30;;
34064;SDS011;20339;49.754;20.158;2023-07-29T02:31:43;3.10;;;2.70;;
34064;SDS011;20339;49.754;20.158;2023-07-29T02:34:15;4.60;;;3.20;;
34064;SDS011;20339;49.754;20.158;2023-07-29T02:36:46;3.80;;;3.00;;
34064;SDS011;20339;49.754;20.158;2023-07-29T02:39:18;6.40;;;3.60;;
34064;SDS011;20339;49.754;20.158;2023-07-29T02:41:49;4.80;;;3.30;;
34064;SDS011;20339;49.754;20.158;2023-07-29T02:44:20;4.00;;;3.60;;
34064;SDS011;20339;49.754;20.158;2023-07-29T02:46:53;6.50;;;3.80;;
34064;SDS011;20339;49.754;20.158;2023-07-29T02:49:25;3.70;;;3.10;;
34064;SDS011;20339;49.754;20.158;2023-07-29T02:51:58;6.10;;;3.60;;
34064;SDS011;20339;49.754;20.158;2023-07-29T02:54:29;4.80;;;3.60;;
34064;SDS011;20339;49.754;20.158;2023-07-29T02:57:00;4.90;;;3.80;;
34064;SDS011;20339;49.754;20.158;2023-07-29T02:59:32;3.90;;;3.30;;
34064;SDS011;20339;49.754;20.158;2023-07-29T03:02:05;4.30;;;3.70;;
34064;SDS011;20339;49.754;20.158;2023-07-29T03:04:36;3.80;;;3.30;;
34064;SDS011;20339;49.754;20.158;2023-07-29T03:07:07;5.90;;;3.60;;
34064;SDS011;20339;49.754;20.158;2023-07-29T03:09:38;3.80;;;3.40;;
34064;SDS011;20339;49.754;20.158;2023-07-29T03:12:09;4.10;;;3.20;;
34064;SDS011;20339;49.754;20.158;2023-07-29T03:14:41;3.90;;;3.10;;
34064;SDS011;20339;49.754;20.158;2023-07-29T03:17:11;3.80;;;3.30;;
34064;SDS011;20339;49.754;20.158;2023-07-29T03:19:42;4.70;;;3.60;;
34064;SDS011;20339;49.754;20.158;2023-07-29T03:22:14;4.30;;;3.20;;
34064;SDS011;20339;49.754;20.158;2023-07-29T03:24:44;5.20;;;3.60;;
34064;SDS011;20339;49.754;20.158;2023-07-29T03:27:15;4.20;;;3.30;;
34064;SDS011;20339;49.754;20.158;2023-07-29T03:29:46;3.80;;;3.30;;
34064;SDS011;20339;49.754;20.158;2023-07-29T03:32:18;4.30;;;3.10;;
34064;SDS011;20339;49.754;20.158;2023-07-29T03:34:49;4.70;;;3.10;;
34064;SDS011;20339;49.754;20.158;2023-07-29T03:37:20;3.90;;;3.20;;
34064;SDS011;20339;49.754;20.158;2023-07-29T03:39:51;5.20;;;3.30;;
34064;SDS011;20339;49.754;20.158;2023-07-29T03:42:22;3.90;;;3.20;;
34064;SDS011;20339;49.754;20.158;2023-07-29T03:44:53;3.40;;;3.10;;
34064;SDS011;20339;49.754;20.158;2023-07-29T03:47:27;6.00;;;3.50;;
34064;SDS011;20339;49.754;20.158;2023-07-29T03:50:00;4.40;;;3.10;;
34064;SDS011;20339;49.754;20.158;2023-07-29T03:52:32;5.90;;;4.00;;
34064;SDS011;20339;49.754;20.158;2023-07-29T03:55:03;5.50;;;3.80;;
34064;SDS011;20339;49.754;20.158;2023-07-29T03:57:38;4.50;;;3.50;;
34064;SDS011;20339;49.754;20.158;2023-07-29T04:00:09;6.30;;;5.20;;
34064;SDS011;20339;49.754;20.158;2023-07-29T04:02:40;9.90;;;7.70;;
34064;SDS011;20339;49.754;20.158;2023-07-29T04:05:13;28.60;;;20.30;;
34064;SDS011;20339;49.754;20.158;2023-07-29T04:07:44;28.20;;;19.40;;
34064;SDS011;20339;49.754;20.158;2023-07-29T04:10:15;16.30;;;12.30;;
34064;SDS011;20339;49.754;20.158;2023-07-29T04:12:47;11.90;;;9.40;;
34064;SDS011;20339;49.754;20.158;2023-07-29T04:15:18;9.20;;;6.20;;
34064;SDS011;20339;49.754;20.158;2023-07-29T04:17:49;6.50;;;5.50;;
34064;SDS011;20339;49.754;20.158;2023-07-29T04:20:20;7.20;;;6.50;;
34064;SDS011;20339;49.754;20.158;2023-07-29T04:22:52;5.80;;;4.20;;
34064;SDS011;20339;49.754;20.158;2023-07-29T04:25:25;4.40;;;3.30;;
34064;SDS011;20339;49.754;20.158;2023-07-29T04:27:59;5.20;;;3.60;;
34064;SDS011;20339;49.754;20.158;2023-07-29T04:30:31;3.70;;;3.10;;
34064;SDS011;20339;49.754;20.158;2023-07-29T04:33:03;4.00;;;3.40;;
34064;SDS011;20339;49.754;20.158;2023-07-29T04:35:34;3.70;;;2.80;;
34064;SDS011;20339;49.754;20.158;2023-07-29T04:38:05;3.90;;;3.50;;
34064;SDS011;20339;49.754;20.158;2023-07-29T04:40:36;3.80;;;2.70;;
34064;SDS011;20339;49.754;20.158;2023-07-29T04:43:09;5.20;;;3.60;;
34064;SDS011;20339;49.754;20.158;2023-07-29T04:45:43;5.20;;;3.70;;
34064;SDS011;20339;49.754;20.158;2023-07-29T04:48:14;4.40;;;3.40;;
34064;SDS011;20339;49.754;20.158;2023-07-29T04:50:45;4.80;;;3.00;;
34064;SDS011;20339;49.754;20.158;2023-07-29T04:53:16;4.30;;;3.50;;
34064;SDS011;20339;49.754;20.158;2023-07-29T04:55:47;5.30;;;3.30;;
34064;SDS011;20339;49.754;20.158;2023-07-29T04:58:18;3.50;;;3.10;;
34064;SDS011;20339;49.754;20.158;2023-07-29T05:00:50;4.50;;;3.60;;
34064;SDS011;20339;49.754;20.158;2023-07-29T05:03:25;4.50;;;3.40;;
34064;SDS011;20339;49.754;20.158;2023-07-29T05:06:00;5.50;;;3.40;;
34064;SDS011;20339;49.754;20.158;2023-07-29T05:08:32;5.20;;;3.40;;
34064;SDS011;20339;49.754;20.158;2023-07-29T05:11:05;4.70;;;3.20;;
34064;SDS011;20339;49.754;20.158;2023-07-29T05:13:36;4.50;;;3.00;;
34064;SDS011;20339;49.754;20.158;2023-07-29T05:16:08;4.00;;;3.10;;
34064;SDS011;20339;49.754;20.158;2023-07-29T05:18:38;7.10;;;3.10;;
34064;SDS011;20339;49.754;20.158;2023-07-29T05:21:12;4.00;;;2.90;;
34064;SDS011;20339;49.754;20.158;2023-07-29T05:23:43;5.00;;;3.40;;
34064;SDS011;20339;49.754;20.158;2023-07-29T05:26:14;3.20;;;2.80;;
34064;SDS011;20339;49.754;20.158;2023-07-29T05:28:45;6.10;;;3.00;;
34064;SDS011;20339;49.754;20.158;2023-07-29T05:31:19;3.70;;;3.10;;
34064;SDS011;20339;49.754;20.158;2023-07-29T05:33:51;5.80;;;2.80;;
34064;SDS011;20339;49.754;20.158;2023-07-29T05:36:22;4.30;;;3.20;;
34064;SDS011;20339;49.754;20.158;2023-07-29T05:38:53;4.80;;;2.80;;
34064;SDS011;20339;49.754;20.158;2023-07-29T05:41:31;3.90;;;2.60;;
34064;SDS011;20339;49.754;20.158;2023-07-29T05:44:04;4.00;;;2.90;;
34064;SDS011;20339;49.754;20.158;2023-07-29T05:46:35;4.40;;;2.60;;
34064;SDS011;20339;49.754;20.158;2023-07-29T05:49:07;3.10;;;2.50;;
34064;SDS011;20339;49.754;20.158;2023-07-29T05:51:38;3.50;;;2.70;;
34064;SDS011;20339;49.754;20.158;2023-07-29T05:54:09;3.10;;;2.30;;
34064;SDS011;20339;49.754;20.158;2023-07-29T05:56:40;2.50;;;2.30;;
34064;SDS011;20339;49.754;20.158;2023-07-29T05:59:12;3.60;;;2.50;;
34064;SDS011;20339;49.754;20.158;2023-07-29T06:01:43;3.40;;;2.60;;
34064;SDS011;20339;49.754;20.158;2023-07-29T06:04:17;3.00;;;2.30;;
34064;SDS011;20339;49.754;20.158;2023-07-29T06:06:48;2.90;;;2.40;;
34064;SDS011;20339;49.754;20.158;2023-07-29T06:09:19;3.10;;;2.10;;
34064;SDS011;20339;49.754;20.158;2023-07-29T06:11:50;3.00;;;2.30;;
34064;SDS011;20339;49.754;20.158;2023-07-29T06:14:22;2.60;;;2.00;;
34064;SDS011;20339;49.754;20.158;2023-07-29T06:16:53;3.50;;;2.20;;
34064;SDS011;20339;49.754;20.158;2023-07-29T06:19:24;3.00;;;2.40;;
34064;SDS011;20339;49.754;20.158;2023-07-29T06:22:04;2.20;;;2.00;;
34064;SDS011;20339;49.754;20.158;2023-07-29T06:24:36;3.10;;;2.30;;
34064;SDS011;20339;49.754;20.158;2023-07-29T06:27:09;3.90;;;2.20;;
34064;SDS011;20339;49.754;20.158;2023-07-29T06:29:41;3.60;;;2.30;;
34064;SDS011;20339;49.754;20.158;2023-07-29T06:32:12;2.60;;;2.00;;
34064;SDS011;20339;49.754;20.158;2023-07-29T06:34:45;2.00;;;1.80;;
34064;SDS011;20339;49.754;20.158;2023-07-29T06:37:16;2.60;;;2.00;;
34064;SDS011;20339;49.754;20.158;2023-07-29T06:39:48;2.10;;;2.00;;
34064;SDS011;20339;49.754;20.158;2023-07-29T06:42:19;3.40;;;2.00;;
34064;SDS011;20339;49.754;20.158;2023-07-29T06:44:50;2.20;;;1.80;;
34064;SDS011;20339;49.754;20.158;2023-07-29T06:47:21;2.40;;;2.10;;
34064;SDS011;20339;49.754;20.158;2023-07-29T06:49:55;2.30;;;2.10;;
34064;SDS011;20339;49.754;20.158;2023-07-29T06:52:29;2.10;;;1.70;;
34064;SDS011;20339;49.754;20.158;2023-07-29T06:55:00;2.30;;;1.80;;
34064;SDS011;20339;49.754;20.158;2023-07-29T06:57:32;2.20;;;1.80;;
34064;SDS011;20339;49.754;20.158;2023-07-29T07:00:06;2.20;;;1.80;;
34064;SDS011;20339;49.754;20.158;2023-07-29T07:02:39;2.00;;;1.80;;
34064;SDS011;20339;49.754;20.158;2023-07-29T07:05:11;2.10;;;1.70;;
34064;SDS011;20339;49.754;20.158;2023-07-29T07:07:42;1.90;;;1.70;;
34064;SDS011;20339;49.754;20.158;2023-07-29T07:10:13;2.10;;;1.70;;
34064;SDS011;20339;49.754;20.158;2023-07-29T07:12:48;2.40;;;1.60;;
34064;SDS011;20339;49.754;20.158;2023-07-29T07:15:19;1.80;;;1.70;;
34064;SDS011;20339;49.754;20.158;2023-07-29T07:17:50;1.90;;;1.60;;
34064;SDS011;20339;49.754;20.158;2023-07-29T07:20:22;3.90;;;2.20;;
34064;SDS011;20339;49.754;20.158;2023-07-29T07:22:54;1.80;;;1.60;;
34064;SDS011;20339;49.754;20.158;2023-07-29T07:25:31;3.30;;;2.00;;
34064;SDS011;20339;49.754;20.158;2023-07-29T07:28:03;3.50;;;2.10;;
34064;SDS011;20339;49.754;20.158;2023-07-29T07:30:34;1.60;;;1.50;;
34064;SDS011;20339;49.754;20.158;2023-07-29T07:33:08;1.90;;;1.30;;
34064;SDS011;20339;49.754;20.158;2023-07-29T07:35:40;2.80;;;1.80;;
34064;SDS011;20339;49.754;20.158;2023-07-29T07:38:11;2.60;;;1.70;;
34064;SDS011;20339;49.754;20.158;2023-07-29T07:40:43;1.60;;;1.30;;
34064;SDS011;20339;49.754;20.158;2023-07-29T07:43:25;1.40;;;1.30;;
34064;SDS011;20339;49.754;20.158;2023-07-29T07:46:01;1.80;;;1.60;;
34064;SDS011;20339;49.754;20.158;2023-07-29T07:48:34;1.80;;;1.20;;
34064;SDS011;20339;49.754;20.158;2023-07-29T07:51:15;2.30;;;1.40;;
34064;SDS011;20339;49.754;20.158;2023-07-29T07:54:05;2.90;;;1.40;;
34064;SDS011;20339;49.754;20.158;2023-07-29T07:56:36;2.10;;;1.30;;
34064;SDS011;20339;49.754;20.158;2023-07-29T07:59:07;1.30;;;1.20;;
34064;SDS011;20339;49.754;20.158;2023-07-29T08:01:39;1.50;;;1.10;;
34064;SDS011;20339;49.754;20.158;2023-07-29T08:04:10;1.20;;;1.00;;
34064;SDS011;20339;49.754;20.158;2023-07-29T08:06:41;1.40;;;1.30;;
34064;SDS011;20339;49.754;20.158;2023-07-29T08:09:12;1.60;;;1.30;;
34064;SDS011;20339;49.754;20.158;2023-07-29T08:11:46;2.30;;;1.50;;
34064;SDS011;20339;49.754;20.158;2023-07-29T08:14:20;1.60;;;1.20;;
34064;SDS011;20339;49.754;20.158;2023-07-29T08:16:50;1.10;;;1.00;;
34064;SDS011;20339;49.754;20.158;2023-07-29T08:19:22;2.60;;;1.40;;
34064;SDS011;20339;49.754;20.158;2023-07-29T08:21:52;2.50;;;1.40;;
34064;SDS011;20339;49.754;20.158;2023-07-29T08:24:26;1.50;;;1.40;;
34064;SDS011;20339;49.754;20.158;2023-07-29T08:26:58;1.40;;;1.30;;
34064;SDS011;20339;49.754;20.158;2023-07-29T08:29:29;3.40;;;1.20;;
34064;SDS011;20339;49.754;20.158;2023-07-29T08:32:00;1.30;;;1.20;;
34064;SDS011;20339;49.754;20.158;2023-07-29T08:34:34;1.50;;;1.40;;
34064;SDS011;20339;49.754;20.158;2023-07-29T08:37:07;1.60;;;1.10;;
34064;SDS011;20339;49.754;20.158;2023-07-29T08:39:38;1.50;;;1.20;;
34064;SDS011;20339;49.754;20.158;2023-07-29T08:42:11;2.10;;;1.50;;
34064;SDS011;20339;49.754;20.158;2023-07-29T08:44:42;1.80;;;1.50;;
34064;SDS011;20339;49.754;20.158;2023-07-29T08:47:14;1.50;;;1.30;;
34064;SDS011;20339;49.754;20.158;2023-07-29T08:49:47;2.40;;;1.60;;
34064;SDS011;20339;49.754;20.158;2023-07-29T08:52:20;2.00;;;1.60;;
34064;SDS011;20339;49.754;20.158;2023-07-29T08:54:54;1.50;;;1.40;;
34064;SDS011;20339;49.754;20.158;2023-07-29T08:57:26;2.40;;;1.50;;
34064;SDS011;20339;49.754;20.158;2023-07-29T08:59:58;2.50;;;1.70;;
34064;SDS011;20339;49.754;20.158;2023-07-29T09:02:31;2.40;;;1.30;;
34064;SDS011;20339;49.754;20.158;2023-07-29T09:05:02;1.30;;;1.20;;
34064;SDS011;20339;49.754;20.158;2023-07-29T09:07:34;2.50;;;1.40;;
34064;SDS011;20339;49.754;20.158;2023-07-29T09:10:09;3.20;;;1.90;;
34064;SDS011;20339;49.754;20.158;2023-07-29T09:12:43;3.90;;;1.40;;
34064;SDS011;20339;49.754;20.158;2023-07-29T09:15:14;2.80;;;1.80;;
34064;SDS011;20339;49.754;20.158;2023-07-29T09:17:58;2.20;;;1.60;;
34064;SDS011;20339;49.754;20.158;2023-07-29T09:20:39;2.80;;;2.00;;
34064;SDS011;20339;49.754;20.158;2023-07-29T09:23:10;2.70;;;1.70;;
34064;SDS011;20339;49.754;20.158;2023-07-29T09:25:41;2.10;;;1.50;;
34064;SDS011;20339;49.754;20.158;2023-07-29T09:28:15;2.00;;;1.60;;
34064;SDS011;20339;49.754;20.158;2023-07-29T09:30:47;2.10;;;1.60;;
34064;SDS011;20339;49.754;20.158;2023-07-29T09:33:19;1.70;;;1.60;;
34064;SDS011;20339;49.754;20.158;2023-07-29T09:35:50;3.20;;;1.60;;
34064;SDS011;20339;49.754;20.158;2023-07-29T09:38:28;2.60;;;2.20;;
34064;SDS011;20339;49.754;20.158;2023-07-29T09:40:59;6.20;;;2.30;;
34064;SDS011;20339;49.754;20.158;2023-07-29T09:43:32;5.80;;;2.60;;
34064;SDS011;20339;49.754;20.158;2023-07-29T09:46:04;2.00;;;1.80;;
34064;SDS011;20339;49.754;20.158;2023-07-29T09:48:37;4.00;;;2.20;;
34064;SDS011;20339;49.754;20.158;2023-07-29T09:51:13;4.20;;;2.40;;
34064;SDS011;20339;49.754;20.158;2023-07-29T09:53:45;2.20;;;2.00;;
34064;SDS011;20339;49.754;20.158;2023-07-29T09:56:25;2.70;;;2.00;;
34064;SDS011;20339;49.754;20.158;2023-07-29T10:02:44;2.40;;;2.10;;
34064;SDS011;20339;49.754;20.158;2023-07-29T10:05:18;3.20;;;2.40;;
34064;SDS011;20339;49.754;20.158;2023-07-29T10:07:49;4.30;;;2.10;;
34064;SDS011;20339;49.754;20.158;2023-07-29T10:10:21;1.80;;;1.40;;
34064;SDS011;20339;49.754;20.158;2023-07-29T10:12:54;2.00;;;1.50;;
34064;SDS011;20339;49.754;20.158;2023-07-29T10:15:30;4.80;;;1.80;;
34064;SDS011;20339;49.754;20.158;2023-07-29T10:18:02;4.00;;;2.40;;
34064;SDS011;20339;49.754;20.158;2023-07-29T10:20:34;2.30;;;1.60;;
34064;SDS011;20339;49.754;20.158;2023-07-29T10:23:08;3.00;;;2.20;;
34064;SDS011;20339;49.754;20.158;2023-07-29T10:25:43;2.60;;;1.80;;
34064;SDS011;20339;49.754;20.158;2023-07-29T10:28:25;3.50;;;1.80;;
34064;SDS011;20339;49.754;20.158;2023-07-29T10:31:03;1.70;;;1.60;;
34064;SDS011;20339;49.754;20.158;2023-07-29T10:33:35;2.30;;;1.80;;
34064;SDS011;20339;49.754;20.158;2023-07-29T10:36:08;2.80;;;1.80;;
34064;SDS011;20339;49.754;20.158;2023-07-29T10:38:40;2.30;;;1.60;;
34064;SDS011;20339;49.754;20.158;2023-07-29T10:41:12;2.80;;;1.70;;
34064;SDS011;20339;49.754;20.158;2023-07-29T10:43:44;2.70;;;1.60;;
34064;SDS011;20339;49.754;20.158;2023-07-29T10:46:18;2.80;;;1.80;;
34064;SDS011;20339;49.754;20.158;2023-07-29T10:48:54;2.30;;;1.70;;
34064;SDS011;20339;49.754;20.158;2023-07-29T10:51:29;2.00;;;1.40;;
34064;SDS011;20339;49.754;20.158;2023-07-29T10:54:09;1.90;;;1.60;;
34064;SDS011;20339;49.754;20.158;2023-07-29T10:56:49;3.90;;;2.10;;
34064;SDS011;20339;49.754;20.158;2023-07-29T10:59:35;3.20;;;1.60;;
34064;SDS011;20339;49.754;20.158;2023-07-29T11:02:14;2.10;;;1.90;;
34064;SDS011;20339;49.754;20.158;2023-07-29T11:04:47;1.60;;;1.50;;
34064;SDS011;20339;49.754;20.158;2023-07-29T11:07:21;2.80;;;1.70;;
34064;SDS011;20339;49.754;20.158;2023-07-29T11:10:02;7.50;;;2.00;;
34064;SDS011;20339;49.754;20.158;2023-07-29T11:12:41;1.80;;;1.50;;
34064;SDS011;20339;49.754;20.158;2023-07-29T11:15:19;2.30;;;1.30;;
34064;SDS011;20339;49.754;20.158;2023-07-29T11:17:53;1.60;;;1.40;;
34064;SDS011;20339;49.754;20.158;2023-07-29T11:20:27;2.00;;;1.80;;
34064;SDS011;20339;49.754;20.158;2023-07-29T11:23:02;1.80;;;1.70;;
34064;SDS011;20339;49.754;20.158;2023-07-29T11:25:34;2.70;;;1.70;;
34064;SDS011;20339;49.754;20.158;2023-07-29T11:28:06;2.70;;;1.30;;
34064;SDS011;20339;49.754;20.158;2023-07-29T11:30:39;2.90;;;1.70;;
34064;SDS011;20339;49.754;20.158;2023-07-29T11:33:13;3.50;;;1.70;;
34064;SDS011;20339;49.754;20.158;2023-07-29T11:35:46;3.00;;;1.70;;
34064;SDS011;20339;49.754;20.158;2023-07-29T11:38:19;3.00;;;1.70;;
34064;SDS011;20339;49.754;20.158;2023-07-29T11:40:58;2.40;;;1.80;;
34064;SDS011;20339;49.754;20.158;2023-07-29T11:43:34;2.40;;;1.90;;
34064;SDS011;20339;49.754;20.158;2023-07-29T11:46:06;2.80;;;1.80;;
34064;SDS011;20339;49.754;20.158;2023-07-29T11:48:37;1.60;;;1.50;;
34064;SDS011;20339;49.754;20.158;2023-07-29T11:51:08;2.40;;;1.90;;
34064;SDS011;20339;49.754;20.158;2023-07-29T11:53:39;1.80;;;1.60;;
34064;SDS011;20339;49.754;20.158;2023-07-29T11:56:15;2.50;;;2.10;;
34064;SDS011;20339;49.754;20.158;2023-07-29T11:58:48;4.50;;;2.00;;
34064;SDS011;20339;49.754;20.158;2023-07-29T12:01:20;2.30;;;1.70;;
34064;SDS011;20339;49.754;20.158;2023-07-29T12:03:52;2.60;;;1.70;;
34064;SDS011;20339;49.754;20.158;2023-07-29T12:06:24;2.00;;;1.30;;
34064;SDS011;20339;49.754;20.158;2023-07-29T12:09:02;2.00;;;1.60;;
34064;SDS011;20339;49.754;20.158;2023-07-29T12:11:35;2.40;;;1.70;;
34064;SDS011;20339;49.754;20.158;2023-07-29T12:14:08;1.70;;;1.60;;
34064;SDS011;20339;49.754;20.158;2023-07-29T12:16:43;3.20;;;1.80;;
34064;SDS011;20339;49.754;20.158;2023-07-29T12:19:20;2.20;;;1.70;;
34064;SDS011;20339;49.754;20.158;2023-07-29T12:21:53;2.70;;;1.60;;
34064;SDS011;20339;49.754;20.158;2023-07-29T12:24:27;1.50;;;1.40;;
34064;SDS011;20339;49.754;20.158;2023-07-29T12:27:01;3.50;;;1.40;;
34064;SDS011;20339;49.754;20.158;2023-07-29T12:29:39;2.40;;;1.50;;
34064;SDS011;20339;49.754;20.158;2023-07-29T12:32:11;1.70;;;1.60;;
34064;SDS011;20339;49.754;20.158;2023-07-29T12:34:42;1.70;;;1.50;;
34064;SDS011;20339;49.754;20.158;2023-07-29T12:37:14;2.90;;;1.70;;
34064;SDS011;20339;49.754;20.158;2023-07-29T12:39:46;2.10;;;1.70;;
34064;SDS011;20339;49.754;20.158;2023-07-29T12:42:20;3.40;;;1.80;;
34064;SDS011;20339;49.754;20.158;2023-07-29T12:44:53;3.00;;;2.10;;
34064;SDS011;20339;49.754;20.158;2023-07-29T12:47:24;2.40;;;2.20;;
34064;SDS011;20339;49.754;20.158;2023-07-29T12:50:02;2.20;;;2.00;;
34064;SDS011;20339;49.754;20.158;2023-07-29T12:52:34;3.10;;;2.00;;
34064;SDS011;20339;49.754;20.158;2023-07-29T12:55:06;2.60;;;2.00;;
34064;SDS011;20339;49.754;20.158;2023-07-29T12:57:41;4.70;;;2.30;;
34064;SDS011;20339;49.754;20.158;2023-07-29T13:00:15;3.30;;;2.00;;
34064;SDS011;20339;49.754;20.158;2023-07-29T13:02:49;2.00;;;1.60;;
34064;SDS011;20339;49.754;20.158;2023-07-29T13:05:21;2.80;;;2.00;;
34064;SDS011;20339;49.754;20.158;2023-07-29T13:07:54;1.80;;;1.60;;
34064;SDS011;20339;49.754;20.158;2023-07-29T13:10:28;2.30;;;1.80;;
34064;SDS011;20339;49.754;20.158;2023-07-29T13:13:00;1.80;;;1.70;;
34064;SDS011;20339;49.754;20.158;2023-07-29T13:15:32;1.70;;;1.60;;
34064;SDS011;20339;49.754;20.158;2023-07-29T13:18:03;2.80;;;1.60;;
34064;SDS011;20339;49.754;20.158;2023-07-29T13:20:34;1.50;;;1.40;;
34064;SDS011;20339;49.754;20.158;2023-07-29T13:23:07;2.50;;;2.00;;
34064;SDS011;20339;49.754;20.158;2023-07-29T13:25:38;3.80;;;1.90;;
34064;SDS011;20339;49.754;20.158;2023-07-29T13:28:12;3.30;;;2.60;;
34064;SDS011;20339;49.754;20.158;2023-07-29T13:30:43;2.60;;;1.60;;
34064;SDS011;20339;49.754;20.158;2023-07-29T13:33:15;2.90;;;1.80;;
34064;SDS011;20339;49.754;20.158;2023-07-29T13:35:46;2.30;;;1.90;;
34064;SDS011;20339;49.754;20.158;2023-07-29T13:38:20;2.60;;;1.80;;
34064;SDS011;20339;49.754;20.158;2023-07-29T13:40:52;1.80;;;1.60;;
34064;SDS011;20339;49.754;20.158;2023-07-29T13:43:26;2.20;;;2.00;;
34064;SDS011;20339;49.754;20.158;2023-07-29T13:46:00;3.20;;;2.60;;
34064;SDS011;20339;49.754;20.158;2023-07-29T13:48:31;2.50;;;2.20;;
34064;SDS011;20339;49.754;20.158;2023-07-29T13:51:03;4.60;;;2.40;;
34064;SDS011;20339;49.754;20.158;2023-07-29T13:53:35;3.00;;;2.30;;
34064;SDS011;20339;49.754;20.158;2023-07-29T13:56:08;4.20;;;2.80;;
34064;SDS011;20339;49.754;20.158;2023-07-29T13:58:40;3.40;;;2.30;;
34064;SDS011;20339;49.754;20.158;2023-07-29T14:01:12;3.90;;;2.50;;
34064;SDS011;20339;49.754;20.158;2023-07-29T14:03:44;3.90;;;2.70;;
34064;SDS011;20339;49.754;20.158;2023-07-29T14:06:15;3.00;;;2.30;;
34064;SDS011;20339;49.754;20.158;2023-07-29T14:08:47;4.50;;;2.60;;
34064;SDS011;20339;49.754;20.158;2023-07-29T14:11:18;3.20;;;2.50;;
34064;SDS011;20339;49.754;20.158;2023-07-29T14:13:49;3.60;;;2.40;;
34064;SDS011;20339;49.754;20.158;2023-07-29T14:16:20;3.30;;;2.50;;
34064;SDS011;20339;49.754;20.158;2023-07-29T14:18:51;3.80;;;2.90;;
34064;SDS011;20339;49.754;20.158;2023-07-29T14:21:25;4.20;;;2.90;;
34064;SDS011;20339;49.754;20.158;2023-07-29T14:23:59;3.70;;;2.60;;
34064;SDS011;20339;49.754;20.158;2023-07-29T14:26:30;4.10;;;2.30;;
34064;SDS011;20339;49.754;20.158;2023-07-29T14:29:02;4.30;;;2.50;;
34064;SDS011;20339;49.754;20.158;2023-07-29T14:31:35;4.40;;;2.70;;
34064;SDS011;20339;49.754;20.158;2023-07-29T14:34:08;3.10;;;2.60;;
34064;SDS011;20339;49.754;20.158;2023-07-29T14:36:39;3.50;;;2.50;;
34064;SDS011;20339;49.754;20.158;2023-07-29T14:39:11;3.30;;;2.60;;
34064;SDS011;20339;49.754;20.158;2023-07-29T14:41:43;4.50;;;3.00;;
34064;SDS011;20339;49.754;20.158;2023-07-29T14:44:14;5.10;;;2.80;;
34064;SDS011;20339;49.754;20.158;2023-07-29T14:46:45;4.50;;;3.20;;
34064;SDS011;20339;49.754;20.158;2023-07-29T14:49:18;4.00;;;2.60;;
34064;SDS011;20339;49.754;20.158;2023-07-29T14:51:50;2.90;;;2.60;;
34064;SDS011;20339;49.754;20.158;2023-07-29T14:54:21;2.70;;;2.30;;
34064;SDS011;20339;49.754;20.158;2023-07-29T14:56:52;3.40;;;2.40;;
34064;SDS011;20339;49.754;20.158;2023-07-29T14:59:29;3.40;;;2.30;;
34064;SDS011;20339;49.754;20.158;2023-07-29T15:02:04;2.90;;;2.40;;
34064;SDS011;20339;49.754;20.158;2023-07-29T15:04:36;5.40;;;2.50;;
34064;SDS011;20339;49.754;20.158;2023-07-29T15:07:07;4.60;;;3.40;;
34064;SDS011;20339;49.754;20.158;2023-07-29T15:09:38;4.30;;;3.20;;